sensor_id;sensor_type;location;lat;lon;timestamp;temperature;humidity
23755;DHT22;12057;52.042;6.830;2022-09-09T00:03:17;15.70;99.90
23755;DHT22;12057;52.042;6.830;2022-09-09T00:08:20;15.70;99.90
23755;DHT22;12057;52.042;6.830;2022-09-09T00:23:40;15.60;99.90
23755;DHT22;12057;52.042;6.830;2022-09-09T00:28:46;15.60;99.90
23755;DHT22;12057;52.042;6.830;2022-09-09T00:33:49;15.60;99.90
23755;DHT22;12057;52.042;6.830;2022-09-09T00:38:55;15.50;99.90
23755;DHT22;12057;52.042;6.830;2022-09-09T00:43:58;15.50;99.90
23755;DHT22;12057;52.042;6.830;2022-09-09T00:49:07;15.40;99.90
23755;DHT22;12057;52.042;6.830;2022-09-09T00:59:35;15.30;99.90
23755;DHT22;12057;52.042;6.830;2022-09-09T01:04:40;15.30;99.90
23755;DHT22;12057;52.042;6.830;2022-09-09T01:09:50;15.30;99.90
23755;DHT22;12057;52.042;6.830;2022-09-09T01:14:54;15.20;99.90
23755;DHT22;12057;52.042;6.830;2022-09-09T01:30:30;14.90;99.90
23755;DHT22;12057;52.042;6.830;2022-09-09T01:35:37;14.80;99.90
23755;DHT22;12057;52.042;6.830;2022-09-09T01:40:40;14.80;99.90
23755;DHT22;12057;52.042;6.830;2022-09-09T01:45:40;14.70;99.90
23755;DHT22;12057;52.042;6.830;2022-09-09T01:50:43;14.70;99.90
23755;DHT22;12057;52.042;6.830;2022-09-09T01:55:54;14.60;99.90
23755;DHT22;12057;52.042;6.830;2022-09-09T02:11:32;14.50;99.90
23755;DHT22;12057;52.042;6.830;2022-09-09T02:21:36;14.40;99.90
23755;DHT22;12057;52.042;6.830;2022-09-09T02:26:39;14.40;99.90
23755;DHT22;12057;52.042;6.830;2022-09-09T02:31:41;14.40;99.90
23755;DHT22;12057;52.042;6.830;2022-09-09T02:36:42;14.40;99.90
23755;DHT22;12057;52.042;6.830;2022-09-09T02:41:43;14.40;99.90
23755;DHT22;12057;52.042;6.830;2022-09-09T02:51:53;14.30;99.90
23755;DHT22;12057;52.042;6.830;2022-09-09T02:56:55;14.30;99.90
23755;DHT22;12057;52.042;6.830;2022-09-09T03:01:56;14.20;99.90
23755;DHT22;12057;52.042;6.830;2022-09-09T03:07:00;14.20;99.90
23755;DHT22;12057;52.042;6.830;2022-09-09T03:12:01;14.20;99.90
23755;DHT22;12057;52.042;6.830;2022-09-09T03:17:01;14.20;99.90
23755;DHT22;12057;52.042;6.830;2022-09-09T03:22:11;14.30;99.90
23755;DHT22;12057;52.042;6.830;2022-09-09T03:27:13;14.20;99.90
23755;DHT22;12057;52.042;6.830;2022-09-09T03:32:18;14.20;99.90
23755;DHT22;12057;52.042;6.830;2022-09-09T03:37:19;14.10;99.90
23755;DHT22;12057;52.042;6.830;2022-09-09T03:42:20;14.20;99.90
23755;DHT22;12057;52.042;6.830;2022-09-09T03:47:21;14.20;99.90
23755;DHT22;12057;52.042;6.830;2022-09-09T03:52:24;14.20;99.90
23755;DHT22;12057;52.042;6.830;2022-09-09T03:57:26;14.20;99.90
23755;DHT22;12057;52.042;6.830;2022-09-09T04:02:27;14.20;99.90
23755;DHT22;12057;52.042;6.830;2022-09-09T04:07:27;14.20;99.90
23755;DHT22;12057;52.042;6.830;2022-09-09T04:12:28;14.20;99.90
23755;DHT22;12057;52.042;6.830;2022-09-09T04:17:29;14.20;99.90
23755;DHT22;12057;52.042;6.830;2022-09-09T04:22:30;14.10;99.90
23755;DHT22;12057;52.042;6.830;2022-09-09T04:27:31;14.10;99.90
23755;DHT22;12057;52.042;6.830;2022-09-09T04:32:32;14.10;99.90
23755;DHT22;12057;52.042;6.830;2022-09-09T04:37:33;14.10;99.90
23755;DHT22;12057;52.042;6.830;2022-09-09T04:42:36;14.10;99.90
23755;DHT22;12057;52.042;6.830;2022-09-09T04:47:37;14.20;99.90
23755;DHT22;12057;52.042;6.830;2022-09-09T04:52:38;14.20;99.90
23755;DHT22;12057;52.042;6.830;2022-09-09T04:57:39;14.30;99.90
23755;DHT22;12057;52.042;6.830;2022-09-09T05:02:39;14.30;99.90
23755;DHT22;12057;52.042;6.830;2022-09-09T05:07:40;14.40;99.90
23755;DHT22;12057;52.042;6.830;2022-09-09T05:12:42;14.40;99.90
23755;DHT22;12057;52.042;6.830;2022-09-09T05:17:42;14.50;99.90
23755;DHT22;12057;52.042;6.830;2022-09-09T05:22:43;14.60;99.90
23755;DHT22;12057;52.042;6.830;2022-09-09T05:27:44;14.60;99.90
23755;DHT22;12057;52.042;6.830;2022-09-09T05:32:44;14.70;99.90
23755;DHT22;12057;52.042;6.830;2022-09-09T05:37:45;14.70;99.90
23755;DHT22;12057;52.042;6.830;2022-09-09T05:42:46;14.80;99.90
23755;DHT22;12057;52.042;6.830;2022-09-09T05:47:51;14.90;99.90
23755;DHT22;12057;52.042;6.830;2022-09-09T05:52:54;15.00;99.90
23755;DHT22;12057;52.042;6.830;2022-09-09T05:57:54;15.00;99.90
23755;DHT22;12057;52.042;6.830;2022-09-09T06:02:55;15.10;99.90
23755;DHT22;12057;52.042;6.830;2022-09-09T06:07:56;15.20;99.90
23755;DHT22;12057;52.042;6.830;2022-09-09T06:12:57;15.20;99.90
23755;DHT22;12057;52.042;6.830;2022-09-09T06:17:58;15.30;99.90
23755;DHT22;12057;52.042;6.830;2022-09-09T06:22:58;15.40;99.90
23755;DHT22;12057;52.042;6.830;2022-09-09T06:27:59;15.50;99.90
23755;DHT22;12057;52.042;6.830;2022-09-09T06:32:59;15.60;99.90
23755;DHT22;12057;52.042;6.830;2022-09-09T06:38:01;15.70;99.90
23755;DHT22;12057;52.042;6.830;2022-09-09T06:43:02;15.70;99.90
23755;DHT22;12057;52.042;6.830;2022-09-09T06:48:02;15.90;99.90
23755;DHT22;12057;52.042;6.830;2022-09-09T06:53:03;16.00;99.90
23755;DHT22;12057;52.042;6.830;2022-09-09T06:58:07;16.10;99.90
23755;DHT22;12057;52.042;6.830;2022-09-09T07:03:09;16.30;99.90
23755;DHT22;12057;52.042;6.830;2022-09-09T07:08:10;16.70;99.90
23755;DHT22;12057;52.042;6.830;2022-09-09T07:13:11;16.90;99.90
23755;DHT22;12057;52.042;6.830;2022-09-09T07:18:11;17.00;99.90
23755;DHT22;12057;52.042;6.830;2022-09-09T07:23:12;17.00;99.90
23755;DHT22;12057;52.042;6.830;2022-09-09T07:28:13;16.90;99.90
23755;DHT22;12057;52.042;6.830;2022-09-09T07:33:13;16.90;99.90
23755;DHT22;12057;52.042;6.830;2022-09-09T07:38:14;16.90;99.90
23755;DHT22;12057;52.042;6.830;2022-09-09T07:43:15;17.20;99.90
23755;DHT22;12057;52.042;6.830;2022-09-09T07:48:17;17.50;99.90
23755;DHT22;12057;52.042;6.830;2022-09-09T07:53:18;17.70;99.90
23755;DHT22;12057;52.042;6.830;2022-09-09T07:58:20;18.00;99.90
23755;DHT22;12057;52.042;6.830;2022-09-09T08:03:20;18.00;99.90
23755;DHT22;12057;52.042;6.830;2022-09-09T08:08:22;17.90;99.90
23755;DHT22;12057;52.042;6.830;2022-09-09T08:13:22;18.00;99.90
23755;DHT22;12057;52.042;6.830;2022-09-09T08:18:23;17.90;99.90
23755;DHT22;12057;52.042;6.830;2022-09-09T08:23:24;17.90;99.90
23755;DHT22;12057;52.042;6.830;2022-09-09T08:28:26;17.90;99.90
23755;DHT22;12057;52.042;6.830;2022-09-09T08:33:26;18.10;99.90
23755;DHT22;12057;52.042;6.830;2022-09-09T08:38:27;18.20;99.90
23755;DHT22;12057;52.042;6.830;2022-09-09T08:43:28;18.40;99.90
23755;DHT22;12057;52.042;6.830;2022-09-09T08:53:37;18.50;99.90
23755;DHT22;12057;52.042;6.830;2022-09-09T08:58:41;18.60;99.90
23755;DHT22;12057;52.042;6.830;2022-09-09T09:08:51;19.50;99.90
23755;DHT22;12057;52.042;6.830;2022-09-09T09:18:54;19.90;99.90
23755;DHT22;12057;52.042;6.830;2022-09-09T09:23:56;20.00;99.90
23755;DHT22;12057;52.042;6.830;2022-09-09T09:28:58;20.20;99.90
23755;DHT22;12057;52.042;6.830;2022-09-09T09:33:59;20.20;99.90
23755;DHT22;12057;52.042;6.830;2022-09-09T09:39:01;20.30;99.90
23755;DHT22;12057;52.042;6.830;2022-09-09T09:44:02;20.00;99.90
23755;DHT22;12057;52.042;6.830;2022-09-09T09:49:04;20.00;99.90
23755;DHT22;12057;52.042;6.830;2022-09-09T09:59:23;20.00;99.90
23755;DHT22;12057;52.042;6.830;2022-09-09T10:04:24;19.90;99.90
23755;DHT22;12057;52.042;6.830;2022-09-09T10:09:29;19.80;99.90
23755;DHT22;12057;52.042;6.830;2022-09-09T10:14:46;19.80;99.90
23755;DHT22;12057;52.042;6.830;2022-09-09T10:20:04;19.80;99.90
23755;DHT22;12057;52.042;6.830;2022-09-09T10:36:02;20.90;99.90
23755;DHT22;12057;52.042;6.830;2022-09-09T10:51:31;21.50;99.90
23755;DHT22;12057;52.042;6.830;2022-09-09T10:56:34;21.10;99.90
23755;DHT22;12057;52.042;6.830;2022-09-09T11:01:42;21.10;99.90
23755;DHT22;12057;52.042;6.830;2022-09-09T11:06:47;21.20;99.90
23755;DHT22;12057;52.042;6.830;2022-09-09T11:11:54;21.10;99.90
23755;DHT22;12057;52.042;6.830;2022-09-09T11:16:59;21.00;99.90
23755;DHT22;12057;52.042;6.830;2022-09-09T11:22:14;20.90;99.90
23755;DHT22;12057;52.042;6.830;2022-09-09T11:42:47;20.60;99.90
23755;DHT22;12057;52.042;6.830;2022-09-09T11:47:53;20.50;99.90
23755;DHT22;12057;52.042;6.830;2022-09-09T11:58:17;20.50;99.90
23755;DHT22;12057;52.042;6.830;2022-09-09T12:03:36;20.50;99.90
23755;DHT22;12057;52.042;6.830;2022-09-09T12:08:41;20.30;99.90
23755;DHT22;12057;52.042;6.830;2022-09-09T12:13:51;20.70;99.90
23755;DHT22;12057;52.042;6.830;2022-09-09T12:18:52;20.80;99.90
23755;DHT22;12057;52.042;6.830;2022-09-09T12:24:09;20.70;99.90
23755;DHT22;12057;52.042;6.830;2022-09-09T12:44:28;20.40;99.90
23755;DHT22;12057;52.042;6.830;2022-09-09T12:49:31;20.10;99.90
23755;DHT22;12057;52.042;6.830;2022-09-09T12:54:35;19.30;99.90
23755;DHT22;12057;52.042;6.830;2022-09-09T12:59:37;19.10;99.90
23755;DHT22;12057;52.042;6.830;2022-09-09T13:04:38;19.00;99.90
23755;DHT22;12057;52.042;6.830;2022-09-09T13:09:39;19.00;99.90
23755;DHT22;12057;52.042;6.830;2022-09-09T13:14:42;18.90;99.90
23755;DHT22;12057;52.042;6.830;2022-09-09T13:19:43;18.90;99.90
23755;DHT22;12057;52.042;6.830;2022-09-09T13:24:45;19.00;99.90
23755;DHT22;12057;52.042;6.830;2022-09-09T13:29:51;19.00;99.90
23755;DHT22;12057;52.042;6.830;2022-09-09T13:35:02;18.90;99.90
23755;DHT22;12057;52.042;6.830;2022-09-09T13:40:06;18.80;99.90
23755;DHT22;12057;52.042;6.830;2022-09-09T13:45:14;18.80;99.90
23755;DHT22;12057;52.042;6.830;2022-09-09T13:50:20;18.70;99.90
23755;DHT22;12057;52.042;6.830;2022-09-09T13:55:21;19.00;99.90
23755;DHT22;12057;52.042;6.830;2022-09-09T14:00:22;19.00;99.90
23755;DHT22;12057;52.042;6.830;2022-09-09T14:05:24;19.10;99.90
23755;DHT22;12057;52.042;6.830;2022-09-09T14:10:25;19.20;99.90
23755;DHT22;12057;52.042;6.830;2022-09-09T14:15:26;19.40;99.90
23755;DHT22;12057;52.042;6.830;2022-09-09T14:20:27;19.60;99.90
23755;DHT22;12057;52.042;6.830;2022-09-09T14:25:28;19.80;99.90
23755;DHT22;12057;52.042;6.830;2022-09-09T14:30:29;19.90;99.90
23755;DHT22;12057;52.042;6.830;2022-09-09T14:35:29;20.30;99.90
23755;DHT22;12057;52.042;6.830;2022-09-09T14:40:36;20.10;99.90
23755;DHT22;12057;52.042;6.830;2022-09-09T14:45:37;19.80;99.90
23755;DHT22;12057;52.042;6.830;2022-09-09T14:50:38;19.80;99.90
23755;DHT22;12057;52.042;6.830;2022-09-09T14:55:40;19.80;99.90
23755;DHT22;12057;52.042;6.830;2022-09-09T15:00:40;19.60;99.90
23755;DHT22;12057;52.042;6.830;2022-09-09T15:05:44;19.60;99.90
23755;DHT22;12057;52.042;6.830;2022-09-09T15:10:45;19.70;99.90
23755;DHT22;12057;52.042;6.830;2022-09-09T15:15:47;19.70;99.90
23755;DHT22;12057;52.042;6.830;2022-09-09T15:20:49;19.70;99.90
23755;DHT22;12057;52.042;6.830;2022-09-09T15:25:51;19.50;99.90
23755;DHT22;12057;52.042;6.830;2022-09-09T15:30:52;19.40;99.90
23755;DHT22;12057;52.042;6.830;2022-09-09T15:35:53;19.30;99.90
23755;DHT22;12057;52.042;6.830;2022-09-09T15:40:54;19.10;99.90
23755;DHT22;12057;52.042;6.830;2022-09-09T15:45:57;18.90;99.90
23755;DHT22;12057;52.042;6.830;2022-09-09T15:51:02;19.00;99.90
23755;DHT22;12057;52.042;6.830;2022-09-09T15:56:04;19.00;99.90
23755;DHT22;12057;52.042;6.830;2022-09-09T16:01:05;19.00;99.90
23755;DHT22;12057;52.042;6.830;2022-09-09T16:06:11;19.10;99.90
23755;DHT22;12057;52.042;6.830;2022-09-09T16:11:13;19.10;99.90
23755;DHT22;12057;52.042;6.830;2022-09-09T16:16:19;19.10;99.90
23755;DHT22;12057;52.042;6.830;2022-09-09T16:21:32;19.00;99.90
23755;DHT22;12057;52.042;6.830;2022-09-09T16:26:35;18.90;99.90
23755;DHT22;12057;52.042;6.830;2022-09-09T16:31:36;18.70;99.90
23755;DHT22;12057;52.042;6.830;2022-09-09T16:36:37;18.80;99.90
23755;DHT22;12057;52.042;6.830;2022-09-09T16:41:45;18.90;99.90
23755;DHT22;12057;52.042;6.830;2022-09-09T16:46:47;18.60;99.90
23755;DHT22;12057;52.042;6.830;2022-09-09T16:51:57;18.50;99.90
23755;DHT22;12057;52.042;6.830;2022-09-09T16:56:58;18.30;99.90
23755;DHT22;12057;52.042;6.830;2022-09-09T17:02:02;18.20;99.90
23755;DHT22;12057;52.042;6.830;2022-09-09T17:07:05;18.10;99.90
23755;DHT22;12057;52.042;6.830;2022-09-09T17:12:06;18.00;99.90
23755;DHT22;12057;52.042;6.830;2022-09-09T17:17:06;17.90;99.90
23755;DHT22;12057;52.042;6.830;2022-09-09T17:22:07;17.80;99.90
23755;DHT22;12057;52.042;6.830;2022-09-09T17:27:08;17.70;99.90
23755;DHT22;12057;52.042;6.830;2022-09-09T17:32:09;17.70;99.90
23755;DHT22;12057;52.042;6.830;2022-09-09T17:37:09;17.60;99.90
23755;DHT22;12057;52.042;6.830;2022-09-09T17:42:10;17.50;99.90
23755;DHT22;12057;52.042;6.830;2022-09-09T17:47:11;17.40;99.90
23755;DHT22;12057;52.042;6.830;2022-09-09T17:52:12;17.30;99.90
23755;DHT22;12057;52.042;6.830;2022-09-09T17:57:12;17.30;99.90
23755;DHT22;12057;52.042;6.830;2022-09-09T18:02:13;17.20;99.90
23755;DHT22;12057;52.042;6.830;2022-09-09T18:07:13;17.20;99.90
23755;DHT22;12057;52.042;6.830;2022-09-09T18:12:14;17.20;99.90
23755;DHT22;12057;52.042;6.830;2022-09-09T18:17:15;17.00;99.90
23755;DHT22;12057;52.042;6.830;2022-09-09T18:22:16;16.80;99.90
23755;DHT22;12057;52.042;6.830;2022-09-09T18:27:19;16.70;99.90
23755;DHT22;12057;52.042;6.830;2022-09-09T18:32:19;16.60;99.90
23755;DHT22;12057;52.042;6.830;2022-09-09T18:37:20;16.60;99.90
23755;DHT22;12057;52.042;6.830;2022-09-09T18:42:21;16.40;99.90
23755;DHT22;12057;52.042;6.830;2022-09-09T18:47:22;16.30;99.90
23755;DHT22;12057;52.042;6.830;2022-09-09T18:52:24;16.20;99.90
23755;DHT22;12057;52.042;6.830;2022-09-09T18:57:24;16.20;99.90
23755;DHT22;12057;52.042;6.830;2022-09-09T19:02:28;16.20;99.90
23755;DHT22;12057;52.042;6.830;2022-09-09T19:07:29;16.20;99.90
23755;DHT22;12057;52.042;6.830;2022-09-09T19:12:29;16.20;99.90
23755;DHT22;12057;52.042;6.830;2022-09-09T19:17:30;16.10;99.90
23755;DHT22;12057;52.042;6.830;2022-09-09T19:22:31;16.00;99.90
23755;DHT22;12057;52.042;6.830;2022-09-09T19:27:32;16.00;99.90
23755;DHT22;12057;52.042;6.830;2022-09-09T19:32:32;15.90;99.90
23755;DHT22;12057;52.042;6.830;2022-09-09T19:37:33;15.90;99.90
23755;DHT22;12057;52.042;6.830;2022-09-09T19:42:34;15.90;99.90
23755;DHT22;12057;52.042;6.830;2022-09-09T19:47:35;15.90;99.90
23755;DHT22;12057;52.042;6.830;2022-09-09T19:52:35;15.80;99.90
23755;DHT22;12057;52.042;6.830;2022-09-09T19:57:38;15.80;99.90
23755;DHT22;12057;52.042;6.830;2022-09-09T20:02:39;15.80;99.90
23755;DHT22;12057;52.042;6.830;2022-09-09T20:07:39;15.70;99.90
23755;DHT22;12057;52.042;6.830;2022-09-09T20:12:40;15.70;99.90
23755;DHT22;12057;52.042;6.830;2022-09-09T20:17:41;15.60;99.90
23755;DHT22;12057;52.042;6.830;2022-09-09T20:22:42;15.60;99.90
23755;DHT22;12057;52.042;6.830;2022-09-09T20:27:43;15.60;99.90
23755;DHT22;12057;52.042;6.830;2022-09-09T20:32:44;15.70;99.90
23755;DHT22;12057;52.042;6.830;2022-09-09T20:37:46;15.70;99.90
23755;DHT22;12057;52.042;6.830;2022-09-09T20:42:46;15.60;99.90
23755;DHT22;12057;52.042;6.830;2022-09-09T20:47:47;15.60;99.90
23755;DHT22;12057;52.042;6.830;2022-09-09T20:52:48;15.60;99.90
23755;DHT22;12057;52.042;6.830;2022-09-09T20:57:49;15.60;99.90
23755;DHT22;12057;52.042;6.830;2022-09-09T21:02:51;15.60;99.90
23755;DHT22;12057;52.042;6.830;2022-09-09T21:07:51;15.60;99.90
23755;DHT22;12057;52.042;6.830;2022-09-09T21:12:52;15.50;99.90
23755;DHT22;12057;52.042;6.830;2022-09-09T21:17:53;15.50;99.90
23755;DHT22;12057;52.042;6.830;2022-09-09T21:22:54;15.40;99.90
23755;DHT22;12057;52.042;6.830;2022-09-09T21:27:54;15.40;99.90
23755;DHT22;12057;52.042;6.830;2022-09-09T21:32:55;15.30;99.90
23755;DHT22;12057;52.042;6.830;2022-09-09T21:37:55;15.30;99.90
23755;DHT22;12057;52.042;6.830;2022-09-09T21:42:56;15.20;99.90
23755;DHT22;12057;52.042;6.830;2022-09-09T21:47:58;15.20;99.90
23755;DHT22;12057;52.042;6.830;2022-09-09T21:52:59;15.20;99.90
23755;DHT22;12057;52.042;6.830;2022-09-09T21:58:00;15.10;99.90
23755;DHT22;12057;52.042;6.830;2022-09-09T22:03:01;15.20;99.90
23755;DHT22;12057;52.042;6.830;2022-09-09T22:08:02;15.10;99.90
23755;DHT22;12057;52.042;6.830;2022-09-09T22:13:02;15.10;99.90
23755;DHT22;12057;52.042;6.830;2022-09-09T22:18:03;15.10;99.90
23755;DHT22;12057;52.042;6.830;2022-09-09T22:23:04;15.10;99.90
23755;DHT22;12057;52.042;6.830;2022-09-09T22:28:05;15.10;99.90
23755;DHT22;12057;52.042;6.830;2022-09-09T22:33:06;15.00;99.90
23755;DHT22;12057;52.042;6.830;2022-09-09T22:38:09;15.10;99.90
23755;DHT22;12057;52.042;6.830;2022-09-09T22:43:14;15.00;99.90
23755;DHT22;12057;52.042;6.830;2022-09-09T22:48:15;15.00;99.90
23755;DHT22;12057;52.042;6.830;2022-09-09T22:53:16;15.00;99.90
23755;DHT22;12057;52.042;6.830;2022-09-09T22:58:17;15.00;99.90
23755;DHT22;12057;52.042;6.830;2022-09-09T23:03:18;15.00;99.90
23755;DHT22;12057;52.042;6.830;2022-09-09T23:08:22;15.00;99.90
23755;DHT22;12057;52.042;6.830;2022-09-09T23:13:23;15.00;99.90
23755;DHT22;12057;52.042;6.830;2022-09-09T23:18:24;15.00;99.90
23755;DHT22;12057;52.042;6.830;2022-09-09T23:23:26;14.90;99.90
23755;DHT22;12057;52.042;6.830;2022-09-09T23:28:28;14.90;99.90
23755;DHT22;12057;52.042;6.830;2022-09-09T23:33:29;15.00;99.90
23755;DHT22;12057;52.042;6.830;2022-09-09T23:38:30;14.90;99.90
23755;DHT22;12057;52.042;6.830;2022-09-09T23:43:31;15.00;99.90
23755;DHT22;12057;52.042;6.830;2022-09-09T23:48:34;14.90;99.90
23755;DHT22;12057;52.042;6.830;2022-09-09T23:53:39;14.90;99.90
23755;DHT22;12057;52.042;6.830;2022-09-09T23:58:39;14.80;99.90
